アルハンゲリスク の空港の天気 - METARとTAF

Arhangel'Sk ( ULAA / ARH ) - ロシア アルハンゲリスク
飛行場実況気象(Metar)
観測時間02/18 01:30 MSK (02/17 22:30 UTC)
風向・風速北北西 4m/s
視程10km以上
天気現象
全天の8割程度の雲 雲底高度 880m
気温-6℃
湿度86%
気圧1004hPa
METARULAA 172230Z 34004MPS 300V030 9999 BKN029 M06/M08 Q1004 R26/450542 NOSIG RMK QFE752/1002
過去の天気等 Google飛行場航空写真 Wunderground天気予報

過去48時間のMETAR

飛行場予報(TAF)
発表時間: 2/17 23:00 MSK (2/17 20:00 UTC)
予報対象時間: 18日0時 MSK ~ 19日0時 MSK
風向・風速北 8m/s 瞬間風速 13m/s
視程5000m
天気現象弱いしゅう雪 高い地吹雪
全天の8割程度の積乱雲 雲底高度 340m
18日0時 MSK ~ 18日7時 MSK に一時的に
風向・風速北 10m/s 瞬間風速 20m/s
視程2000m
天気現象しゅう雪 高い地吹雪
全天の8割程度の雲 雲底高度 210m
全天の8割程度の積乱雲 雲底高度 300m
18日7時 MSK から
風向・風速北北西 5m/s 瞬間風速 10m/s
視程10km以上
全天の8割程度の雲 雲底高度 370m
18日7時 MSK ~ 18日21時 MSK に一時的に
風向・風速西 5m/s 瞬間風速 14m/s
視程3100m
天気現象弱いしゅう雪
全天の8割程度の積乱雲 雲底高度 340m
18日21時 MSK から
風向・風速南西 4m/s
視程4000m
天気現象弱い雪
全天の8割程度の雲 雲底高度 370m
18日21時 MSK ~ 18日24時 MSK に一時的に
風向・風速南 5m/s 瞬間風速 11m/s
視程2100m
天気現象弱いしゅう雪
全天の8割程度の雲 雲底高度 210m
全天の8割程度の積乱雲 雲底高度 340m
TAF ULAA 172000Z 1721/1821 35008G13MPS 5000 -SHSN BLSN BKN011CB
TEMPO 1721/1804 35010G20MPS 2000 SHSN BLSN BKN007 BKN010CB
FM180400 33005G10MPS 9999 BKN012
TEMPO 1804/1818 27005G14MPS 3100 -SHSN BKN011CB
FM181800 23004MPS 4000 -SN BKN012
TEMPO 1818/1821 18005G11MPS 2100 -SHSN BKN007 BKN011CB